createdAt,value
2023-03-24T00:02:11.260Z,10.85
2023-03-24T00:04:42.830Z,10.00
2023-03-24T00:07:14.683Z,10.23
2023-03-24T00:09:44.843Z,9.48
2023-03-24T00:12:18.736Z,10.23
2023-03-24T00:14:48.885Z,10.10
2023-03-24T00:17:18.452Z,9.75
2023-03-24T00:19:47.194Z,10.35
2023-03-24T00:22:15.884Z,10.13
2023-03-24T00:24:46.481Z,9.55
2023-03-24T00:27:15.782Z,8.18
2023-03-24T00:29:44.483Z,9.48
2023-03-24T00:32:14.665Z,9.05
2023-03-24T00:34:43.556Z,8.10
2023-03-24T00:37:12.103Z,8.70
2023-03-24T00:39:43.917Z,9.05
2023-03-24T00:42:13.928Z,8.35
2023-03-24T00:44:45.172Z,8.55
2023-03-24T00:47:18.030Z,8.13
2023-03-24T00:49:46.646Z,8.15
2023-03-24T00:52:18.263Z,7.88
2023-03-24T00:54:47.898Z,8.77
2023-03-24T00:57:22.000Z,7.70
2023-03-24T00:59:51.335Z,8.32
2023-03-24T01:02:24.918Z,7.50
2023-03-24T01:04:55.032Z,8.68
2023-03-24T01:07:25.512Z,8.85
2023-03-24T01:09:58.711Z,7.90
2023-03-24T01:12:29.370Z,7.60
2023-03-24T01:15:00.730Z,7.97
2023-03-24T01:17:31.135Z,7.55
2023-03-24T01:20:00.227Z,8.13
2023-03-24T01:22:31.313Z,8.00
2023-03-24T01:27:29.882Z,6.72
2023-03-24T01:30:00.832Z,7.53
2023-03-24T01:32:31.547Z,7.20
2023-03-24T01:35:00.290Z,6.10
2023-03-24T01:37:28.975Z,4.90
2023-03-24T01:39:57.801Z,5.00
2023-03-24T01:42:28.926Z,5.30
2023-03-24T01:45:02.396Z,4.63
2023-03-24T01:47:35.132Z,3.70
2023-03-24T01:50:05.375Z,3.70
2023-03-24T01:52:37.913Z,3.70
2023-03-24T01:55:11.273Z,3.33
2023-03-24T01:57:44.471Z,2.20
2023-03-24T02:00:16.042Z,1.80
2023-03-24T02:03:14.940Z,2.60
2023-03-24T02:05:53.508Z,2.08
2023-03-24T02:08:28.316Z,1.90
2023-03-24T02:10:58.401Z,1.13
2023-03-24T02:13:33.840Z,1.08
2023-03-24T02:16:15.394Z,0.98
2023-03-24T02:18:54.963Z,0.93
2023-03-24T02:22:10.692Z,1.05
2023-03-24T02:25:10.986Z,0.50
2023-03-24T02:28:16.458Z,0.40
2023-03-24T02:31:07.835Z,0.47
2023-03-24T02:37:07.984Z,0.22
2023-03-24T02:40:03.497Z,0.57
2023-03-24T02:42:43.769Z,0.20
2023-03-24T02:45:28.268Z,0.50
2023-03-24T02:48:16.169Z,0.10
2023-03-24T02:50:52.599Z,0.20
2023-03-24T02:53:26.796Z,0.10
2023-03-24T02:56:22.220Z,0.30
2023-03-24T02:59:01.287Z,0.20
2023-03-24T03:01:38.180Z,0.10
2023-03-24T03:04:29.432Z,0.30
2023-03-24T03:07:01.754Z,0.30
2023-03-24T03:09:31.341Z,0.30
2023-03-24T03:12:03.423Z,0.20
2023-03-24T03:14:38.568Z,0.30
2023-03-24T03:17:12.770Z,0.30
2023-03-24T03:19:43.879Z,0.40
2023-03-24T03:24:50.673Z,0.90
2023-03-24T03:27:23.893Z,0.98
2023-03-24T03:29:55.759Z,0.85
2023-03-24T03:32:29.228Z,0.90
2023-03-24T03:35:01.981Z,1.83
2023-03-24T03:37:38.093Z,1.25
2023-03-24T03:40:12.354Z,0.90
2023-03-24T03:42:47.895Z,1.25
2023-03-24T03:47:45.143Z,1.52
2023-03-24T03:50:14.458Z,1.40
2023-03-24T03:52:44.866Z,1.42
2023-03-24T03:55:14.330Z,1.35
2023-03-24T03:57:47.027Z,1.15
2023-03-24T04:00:33.051Z,0.95
2023-03-24T04:03:52.998Z,0.90
2023-03-24T04:06:39.250Z,0.80
2023-03-24T04:09:25.257Z,0.85
2023-03-24T04:12:15.069Z,1.73
2023-03-24T04:15:29.076Z,0.90
2023-03-24T04:18:44.045Z,1.13
2023-03-24T04:21:45.676Z,1.40
2023-03-24T04:24:27.126Z,1.77
2023-03-24T04:27:09.680Z,1.95
2023-03-24T04:29:53.996Z,1.88
2023-03-24T04:32:36.460Z,1.33
2023-03-24T04:35:11.648Z,1.75
2023-03-24T04:38:04.231Z,1.33
2023-03-24T04:40:42.172Z,1.63
2023-03-24T04:43:18.755Z,1.05
2023-03-24T04:45:50.148Z,1.20
2023-03-24T04:48:52.917Z,1.30
2023-03-24T04:51:35.186Z,1.50
2023-03-24T04:54:14.074Z,1.38
2023-03-24T04:56:53.808Z,1.23
2023-03-24T04:59:40.829Z,0.90
2023-03-24T05:02:10.404Z,1.13
2023-03-24T05:07:29.385Z,1.65
2023-03-24T05:10:01.654Z,1.00
2023-03-24T05:12:31.915Z,1.13
2023-03-24T05:15:19.635Z,1.15
2023-03-24T05:17:52.863Z,0.90
2023-03-24T05:20:26.661Z,0.95
2023-03-24T05:22:57.762Z,0.98
2023-03-24T05:25:27.502Z,1.25
2023-03-24T05:27:56.217Z,1.38
2023-03-24T05:30:27.555Z,0.50
2023-03-24T05:33:04.537Z,0.47
2023-03-24T05:35:35.001Z,0.70
2023-03-24T05:38:03.827Z,1.33
2023-03-24T05:40:32.547Z,0.68
2023-03-24T05:43:15.841Z,0.70
2023-03-24T05:45:52.035Z,0.70
2023-03-24T05:48:30.175Z,0.90
2023-03-24T05:51:13.965Z,0.80
2023-03-24T05:53:43.449Z,0.75
2023-03-24T05:56:15.011Z,0.98
2023-03-24T05:59:02.578Z,0.80
2023-03-24T06:01:50.544Z,0.98
2023-03-24T06:04:25.636Z,1.45
2023-03-24T06:07:00.233Z,1.10
2023-03-24T06:09:38.238Z,0.88
2023-03-24T06:12:11.312Z,1.80
2023-03-24T06:14:46.753Z,0.75
2023-03-24T06:17:16.111Z,1.30
2023-03-24T06:19:49.962Z,0.93
2023-03-24T06:22:38.875Z,0.82
2023-03-24T06:25:13.972Z,1.38
2023-03-24T06:27:50.599Z,1.20
2023-03-24T06:30:23.395Z,1.23
2023-03-24T06:32:52.440Z,1.10
2023-03-24T06:35:21.947Z,1.40
2023-03-24T06:37:57.910Z,1.00
2023-03-24T06:40:26.704Z,1.10
2023-03-24T06:42:59.561Z,0.80
2023-03-24T06:45:30.722Z,1.25
2023-03-24T06:48:00.503Z,1.88
2023-03-24T06:50:33.390Z,1.48
2023-03-24T06:53:08.523Z,1.10
2023-03-24T06:55:38.254Z,0.95
2023-03-24T06:58:07.578Z,0.77
2023-03-24T07:00:37.140Z,0.75
2023-03-24T07:03:31.910Z,0.82
2023-03-24T07:06:23.275Z,1.45
2023-03-24T07:08:57.316Z,1.17
2023-03-24T07:11:29.228Z,1.25
2023-03-24T07:14:03.062Z,1.10
2023-03-24T07:16:33.214Z,0.98
2023-03-24T07:19:22.742Z,1.08
2023-03-24T07:21:59.366Z,1.42
2023-03-24T07:24:43.799Z,1.02
2023-03-24T07:27:42.758Z,1.10
2023-03-24T07:30:12.092Z,2.40
2023-03-24T07:32:46.148Z,1.00
2023-03-24T07:35:14.923Z,1.10
2023-03-24T07:37:44.374Z,1.52
2023-03-24T07:40:16.326Z,1.50
2023-03-24T07:42:47.519Z,1.35
2023-03-24T07:45:46.226Z,1.15
2023-03-24T07:48:15.627Z,1.50
2023-03-24T07:50:44.501Z,1.85
2023-03-24T07:53:36.513Z,1.85
2023-03-24T07:56:08.074Z,1.10
2023-03-24T07:58:41.508Z,1.55
2023-03-24T08:01:24.596Z,2.50
2023-03-24T08:03:56.453Z,1.92
2023-03-24T08:06:48.256Z,1.80
2023-03-24T08:09:17.374Z,2.53
2023-03-24T08:11:47.969Z,2.25
2023-03-24T08:14:16.830Z,2.08
2023-03-24T08:16:46.580Z,1.73
2023-03-24T08:19:15.354Z,3.13
2023-03-24T08:21:43.854Z,2.33
2023-03-24T08:24:12.400Z,2.17
2023-03-24T08:26:42.895Z,2.30
2023-03-24T08:29:13.315Z,1.73
2023-03-24T08:31:41.893Z,1.92
2023-03-24T08:34:11.841Z,1.77
2023-03-24T08:36:41.617Z,2.33
2023-03-24T08:39:10.718Z,2.17
2023-03-24T08:41:39.362Z,1.13
2023-03-24T08:44:07.932Z,2.00
2023-03-24T08:46:38.057Z,2.28
2023-03-24T08:49:06.663Z,1.77
2023-03-24T08:51:35.865Z,2.95
2023-03-24T08:54:04.416Z,2.00
2023-03-24T08:56:33.275Z,1.92
2023-03-24T08:59:01.809Z,2.40
2023-03-24T09:01:30.392Z,2.10
2023-03-24T09:04:00.520Z,1.92
2023-03-24T09:06:29.312Z,1.97
2023-03-24T09:08:58.078Z,2.03
2023-03-24T09:11:26.828Z,1.58
2023-03-24T09:13:55.442Z,1.55
2023-03-24T09:16:24.687Z,2.08
2023-03-24T09:18:53.300Z,1.48
2023-03-24T09:21:23.466Z,1.80
2023-03-24T09:23:52.089Z,2.88
2023-03-24T09:26:20.710Z,2.15
2023-03-24T09:28:49.209Z,1.35
2023-03-24T09:31:17.975Z,1.50
2023-03-24T09:33:47.077Z,1.30
2023-03-24T09:36:15.704Z,1.30
2023-03-24T09:38:45.899Z,1.50
2023-03-24T09:41:18.815Z,1.50
2023-03-24T09:43:54.105Z,1.42
2023-03-24T09:46:28.474Z,1.13
2023-03-24T09:48:58.135Z,1.05
2023-03-24T09:51:28.760Z,1.23
2023-03-24T09:54:13.346Z,1.42
2023-03-24T09:56:46.064Z,1.20
2023-03-24T09:59:19.357Z,1.23
2023-03-24T10:01:48.267Z,1.25
2023-03-24T10:04:19.986Z,1.17
2023-03-24T10:06:53.558Z,0.80
2023-03-24T10:09:28.994Z,1.02
2023-03-24T10:12:12.745Z,1.17
2023-03-24T10:14:51.931Z,1.17
2023-03-24T10:17:31.648Z,0.82
2023-03-24T10:20:08.000Z,1.02
2023-03-24T10:22:41.183Z,1.05
2023-03-24T10:25:20.006Z,0.60
2023-03-24T10:27:53.207Z,0.65
2023-03-24T10:30:25.854Z,1.05
2023-03-24T10:32:55.169Z,0.85
2023-03-24T10:35:29.134Z,1.77
2023-03-24T10:38:01.929Z,1.40
2023-03-24T10:40:34.604Z,1.00
2023-03-24T10:43:09.520Z,0.60
2023-03-24T10:45:41.385Z,1.23
2023-03-24T10:48:10.932Z,0.80
2023-03-24T10:50:44.240Z,1.05
2023-03-24T10:53:19.982Z,1.10
2023-03-24T10:55:51.017Z,0.65
2023-03-24T11:00:50.544Z,1.10
2023-03-24T11:03:27.264Z,0.90
2023-03-24T11:06:00.621Z,0.90
2023-03-24T11:08:35.870Z,0.70
2023-03-24T11:11:16.234Z,0.50
2023-03-24T11:13:56.034Z,0.93
2023-03-24T11:16:29.863Z,0.45
2023-03-24T11:19:01.393Z,0.75
2023-03-24T11:21:31.631Z,0.52
2023-03-24T11:24:02.722Z,0.60
2023-03-24T11:26:36.341Z,0.30
2023-03-24T11:29:07.928Z,0.40
2023-03-24T11:31:38.653Z,0.50
2023-03-24T11:34:14.219Z,0.60
2023-03-24T11:36:50.177Z,0.75
2023-03-24T11:39:22.353Z,0.82
2023-03-24T11:42:17.192Z,0.52
2023-03-24T11:44:51.595Z,0.30
2023-03-24T11:47:26.266Z,0.55
2023-03-24T11:50:06.188Z,0.70
2023-03-24T11:52:40.670Z,0.30
2023-03-24T11:55:16.855Z,0.70
2023-03-24T11:57:56.188Z,0.68
2023-03-24T12:00:31.288Z,0.40
2023-03-24T12:03:34.291Z,0.50
2023-03-24T12:06:16.208Z,0.63
2023-03-24T12:08:54.055Z,0.40
2023-03-24T12:11:28.756Z,0.50
2023-03-24T12:14:02.269Z,0.30
2023-03-24T12:16:42.278Z,2.13
2023-03-24T12:19:46.685Z,0.50
2023-03-24T12:22:30.506Z,1.23
2023-03-24T12:25:19.519Z,2.42
2023-03-24T12:27:56.312Z,0.73
2023-03-24T12:30:36.186Z,0.77
2023-03-24T12:33:24.965Z,0.85
2023-03-24T12:36:06.508Z,0.77
2023-03-24T12:38:51.716Z,0.57
2023-03-24T12:41:36.089Z,1.58
2023-03-24T12:44:22.228Z,0.50
2023-03-24T12:47:00.648Z,0.43
2023-03-24T12:49:56.013Z,19.13
2023-03-24T12:52:58.047Z,3.17
2023-03-24T12:55:44.573Z,2.22
2023-03-24T12:58:18.463Z,12.23
2023-03-24T13:00:59.975Z,0.77
2023-03-24T13:03:35.304Z,0.65
2023-03-24T13:06:17.484Z,0.60
2023-03-24T13:08:54.684Z,0.57
2023-03-24T13:11:33.430Z,0.68
2023-03-24T13:14:05.002Z,0.68
2023-03-24T13:16:37.558Z,0.52
2023-03-24T13:19:16.132Z,0.82
2023-03-24T13:21:45.898Z,0.80
2023-03-24T13:24:15.678Z,0.80
2023-03-24T13:26:54.587Z,0.88
2023-03-24T13:29:38.688Z,0.95
2023-03-24T13:32:27.173Z,0.77
2023-03-24T13:35:03.043Z,0.82
2023-03-24T13:37:37.558Z,0.98
2023-03-24T13:40:12.433Z,0.88
2023-03-24T13:42:47.069Z,0.70
2023-03-24T13:45:27.637Z,0.70
2023-03-24T13:48:07.711Z,0.40
2023-03-24T13:50:41.059Z,0.60
2023-03-24T13:53:16.292Z,0.50
2023-03-24T13:55:51.478Z,0.80
2023-03-24T13:58:23.027Z,0.68
2023-03-24T14:01:18.975Z,0.57
2023-03-24T14:04:17.104Z,0.70
2023-03-24T14:06:49.179Z,0.50
2023-03-24T14:09:21.839Z,0.65
2023-03-24T14:12:10.409Z,0.50
2023-03-24T14:15:19.717Z,0.55
2023-03-24T14:17:50.915Z,0.50
2023-03-24T14:20:28.781Z,0.40
2023-03-24T14:22:58.874Z,0.77
2023-03-24T14:25:30.942Z,0.65
2023-03-24T14:28:29.090Z,0.93
2023-03-24T14:31:24.693Z,0.73
2023-03-24T14:34:15.130Z,1.05
2023-03-24T14:36:45.552Z,0.50
2023-03-24T14:39:26.527Z,0.50
2023-03-24T14:44:57.591Z,0.55
2023-03-24T14:47:29.829Z,0.60
2023-03-24T14:50:00.326Z,0.70
2023-03-24T14:52:35.415Z,0.60
2023-03-24T14:55:08.730Z,0.38
2023-03-24T14:57:42.177Z,0.65
2023-03-24T15:00:20.136Z,0.55
2023-03-24T15:02:51.128Z,0.43
2023-03-24T15:08:16.890Z,0.38
2023-03-24T15:10:54.211Z,0.47
2023-03-24T15:13:35.377Z,0.30
2023-03-24T15:18:42.126Z,0.80
2023-03-24T15:21:17.929Z,1.25
2023-03-24T15:23:49.388Z,1.08
2023-03-24T15:26:23.583Z,1.38
2023-03-24T15:28:59.880Z,1.50
2023-03-24T15:31:31.569Z,1.40
2023-03-24T15:34:09.005Z,2.67
2023-03-24T15:36:45.929Z,1.80
2023-03-24T15:39:22.228Z,1.27
2023-03-24T15:41:54.090Z,1.00
2023-03-24T15:44:27.098Z,0.70
2023-03-24T15:46:57.836Z,1.10
2023-03-24T15:49:28.697Z,0.55
2023-03-24T15:52:00.958Z,0.73
2023-03-24T15:54:32.778Z,0.70
2023-03-24T15:57:15.114Z,0.60
2023-03-24T15:59:49.062Z,0.57
2023-03-24T16:02:30.313Z,0.47
2023-03-24T16:05:10.706Z,0.50
2023-03-24T16:07:42.861Z,0.88
2023-03-24T16:10:32.286Z,0.90
2023-03-24T16:13:17.556Z,1.00
2023-03-24T16:15:48.929Z,0.80
2023-03-24T16:18:22.195Z,1.17
2023-03-24T16:20:52.024Z,1.10
2023-03-24T16:23:20.734Z,0.73
2023-03-24T16:25:49.350Z,1.23
2023-03-24T16:28:21.830Z,0.82
2023-03-24T16:30:53.892Z,1.20
2023-03-24T16:33:22.713Z,1.00
2023-03-24T16:35:51.395Z,1.33
2023-03-24T16:38:20.074Z,1.83
2023-03-24T16:40:51.222Z,1.30
2023-03-24T16:43:21.732Z,1.20
2023-03-24T16:45:51.803Z,2.00
2023-03-24T16:48:20.501Z,1.67
2023-03-24T16:50:53.619Z,1.60
2023-03-24T16:53:22.384Z,1.83
2023-03-24T16:55:51.146Z,1.50
2023-03-24T16:58:21.389Z,2.30
2023-03-24T17:00:50.897Z,1.70
2023-03-24T17:03:19.765Z,2.35
2023-03-24T17:05:50.908Z,1.95
2023-03-24T17:08:20.291Z,2.45
2023-03-24T17:10:53.657Z,1.83
2023-03-24T17:13:26.078Z,1.58
2023-03-24T17:15:54.863Z,1.90
2023-03-24T17:18:23.444Z,1.35
2023-03-24T17:20:52.223Z,1.60
2023-03-24T17:23:24.026Z,1.20
2023-03-24T17:25:52.884Z,1.70
2023-03-24T17:28:21.932Z,1.80
2023-03-24T17:30:52.126Z,1.13
2023-03-24T17:33:20.991Z,1.30
2023-03-24T17:35:49.561Z,1.15
2023-03-24T17:38:18.267Z,0.95
2023-03-24T17:40:48.364Z,1.80
2023-03-24T17:43:17.263Z,1.80
2023-03-24T17:45:46.429Z,1.70
2023-03-24T17:48:16.865Z,1.65
2023-03-24T17:50:46.350Z,2.10
2023-03-24T17:53:17.544Z,2.58
2023-03-24T17:55:46.204Z,2.35
2023-03-24T17:58:14.881Z,1.88
2023-03-24T18:00:43.591Z,1.58
2023-03-24T18:03:12.482Z,2.17
2023-03-24T18:05:43.746Z,2.03
2023-03-24T18:08:13.908Z,2.05
2023-03-24T18:10:42.369Z,2.10
2023-03-24T18:13:12.126Z,1.83
2023-03-24T18:15:43.120Z,1.88
2023-03-24T18:20:41.928Z,2.20
2023-03-24T18:23:10.430Z,2.03
2023-03-24T18:25:38.978Z,2.70
2023-03-24T18:28:07.580Z,2.05
2023-03-24T18:30:36.921Z,2.00
2023-03-24T18:33:05.541Z,2.15
2023-03-24T18:35:35.325Z,2.17
2023-03-24T18:38:05.316Z,2.25
2023-03-24T18:40:33.754Z,2.03
2023-03-24T18:43:02.619Z,2.15
2023-03-24T18:45:31.355Z,2.53
2023-03-24T18:48:00.016Z,2.15
2023-03-24T18:50:28.536Z,2.30
2023-03-24T18:52:56.923Z,2.42
2023-03-24T18:55:27.137Z,2.00
2023-03-24T18:57:55.577Z,1.57
2023-03-24T19:00:25.241Z,1.90
2023-03-24T19:02:54.164Z,1.75
2023-03-24T19:05:22.799Z,1.70
2023-03-24T19:07:52.504Z,1.60
2023-03-24T19:10:21.066Z,1.50
2023-03-24T19:12:50.877Z,1.70
2023-03-24T19:15:19.862Z,1.83
2023-03-24T19:17:48.304Z,2.03
2023-03-24T19:20:16.972Z,1.92
2023-03-24T19:22:45.504Z,2.05
2023-03-24T19:25:15.597Z,2.90
2023-03-24T19:27:44.179Z,2.47
2023-03-24T19:30:16.059Z,2.97
2023-03-24T19:32:44.831Z,2.88
2023-03-24T19:35:13.678Z,2.97
2023-03-24T19:37:42.696Z,2.83
2023-03-24T19:40:12.749Z,3.17
2023-03-24T19:42:42.125Z,4.10
2023-03-24T19:45:12.635Z,3.85
2023-03-24T19:47:43.577Z,3.88
2023-03-24T19:50:13.104Z,4.07
2023-03-24T19:52:43.527Z,3.03
2023-03-24T19:55:12.546Z,3.30
2023-03-24T19:57:41.156Z,3.30
2023-03-24T20:00:11.991Z,3.17
2023-03-24T20:02:40.731Z,2.90
2023-03-24T20:05:11.554Z,2.90
2023-03-24T20:07:40.255Z,3.85
2023-03-24T20:10:10.046Z,3.00
2023-03-24T20:12:38.888Z,3.08
2023-03-24T20:15:08.194Z,3.17
2023-03-24T20:17:37.803Z,3.13
2023-03-24T20:20:08.206Z,3.60
2023-03-24T20:22:42.235Z,3.40
2023-03-24T20:25:11.703Z,4.30
2023-03-24T20:27:40.481Z,3.85
2023-03-24T20:30:10.218Z,4.35
2023-03-24T20:32:38.777Z,4.30
2023-03-24T20:35:09.262Z,4.45
2023-03-24T20:37:39.258Z,5.40
2023-03-24T20:40:09.948Z,5.53
2023-03-24T20:42:39.124Z,4.50
2023-03-24T20:45:09.678Z,3.35
2023-03-24T20:47:38.846Z,3.47
2023-03-24T20:50:08.791Z,2.90
2023-03-24T20:52:38.889Z,2.72
2023-03-24T20:55:09.032Z,2.83
2023-03-24T20:57:37.811Z,2.88
2023-03-24T21:00:13.777Z,3.10
2023-03-24T21:02:43.554Z,3.33
2023-03-24T21:05:12.688Z,3.25
2023-03-24T21:07:45.852Z,2.95
2023-03-24T21:10:14.663Z,3.00
2023-03-24T21:12:53.711Z,1.45
2023-03-24T21:15:25.805Z,1.47
2023-03-24T21:20:32.009Z,1.10
2023-03-24T21:23:04.552Z,0.68
2023-03-24T21:25:37.570Z,0.50
2023-03-24T21:28:12.414Z,0.60
2023-03-24T21:30:41.566Z,0.32
2023-03-24T21:33:11.147Z,0.73
2023-03-24T21:35:39.893Z,0.85
2023-03-24T21:38:11.007Z,0.80
2023-03-24T21:43:08.071Z,1.20
2023-03-24T21:45:37.450Z,0.90
2023-03-24T21:48:11.054Z,1.08
2023-03-24T21:50:40.176Z,1.10
2023-03-24T21:53:15.073Z,1.23
2023-03-24T21:55:50.264Z,1.42
2023-03-24T21:58:19.394Z,0.95
2023-03-24T22:00:49.235Z,1.10
2023-03-24T22:03:20.762Z,0.90
2023-03-24T22:05:49.660Z,1.08
2023-03-24T22:08:23.031Z,0.60
2023-03-24T22:10:54.803Z,0.75
2023-03-24T22:13:23.472Z,0.35
2023-03-24T22:15:55.168Z,0.80
2023-03-24T22:18:24.023Z,0.57
2023-03-24T22:20:56.827Z,0.60
2023-03-24T22:23:27.459Z,0.32
2023-03-24T22:25:56.262Z,0.47
2023-03-24T22:28:26.805Z,0.63
2023-03-24T22:31:00.974Z,0.75
2023-03-24T22:33:33.401Z,0.47
2023-03-24T22:36:03.477Z,0.40
2023-03-24T22:38:35.575Z,0.50
2023-03-24T22:41:06.783Z,1.92
2023-03-24T22:43:36.576Z,0.50
2023-03-24T22:46:05.506Z,0.70
2023-03-24T22:48:34.289Z,0.50
2023-03-24T22:51:03.169Z,0.47
2023-03-24T22:53:33.383Z,0.43
2023-03-24T22:56:02.155Z,0.30
2023-03-24T22:58:30.944Z,0.40
2023-03-24T23:00:59.507Z,0.30
2023-03-24T23:03:28.798Z,0.57
2023-03-24T23:06:01.991Z,0.65
2023-03-24T23:08:30.947Z,0.30
2023-03-24T23:11:01.771Z,0.20
2023-03-24T23:13:31.097Z,0.30
2023-03-24T23:15:59.590Z,0.20
2023-03-24T23:18:28.218Z,0.40
2023-03-24T23:21:03.649Z,0.30
2023-03-24T23:23:32.434Z,0.47
2023-03-24T23:26:03.731Z,0.40
2023-03-24T23:28:33.126Z,0.38
2023-03-24T23:31:01.964Z,0.47
2023-03-24T23:33:30.723Z,0.22
2023-03-24T23:36:01.944Z,0.65
2023-03-24T23:38:31.747Z,0.40
2023-03-24T23:41:01.810Z,0.77
2023-03-24T23:43:30.393Z,0.30
2023-03-24T23:45:59.694Z,0.75
2023-03-24T23:48:29.177Z,0.40
2023-03-24T23:50:57.970Z,0.50
2023-03-24T23:53:27.236Z,0.60
2023-03-24T23:55:57.687Z,0.50
2023-03-24T23:58:30.236Z,0.70
